Time;durP1;ratioP1;P1;durP2;ratioP2;P2;SDS_P1;SDS_P2;PMS_P1;PMS_P2;Temp;Humidity;BMP_temperature;BMP_pressure;BME280_temperature;BME280_humidity;BME280_pressure;Samples;Min_cycle;Max_cycle;Signal;HPM_P1;HPM_P2
2023/09/03 00:00:52;;;;;;;10.75;8.75;;;14.00;99.90;;;;;;5122538;28;20043;-61
2023/09/03 00:03:17;;;;;;;12.80;8.85;;;14.00;99.90;;;;;;5123755;28;20048;-61
2023/09/03 00:05:50;;;;;;;12.35;8.70;;;13.90;99.90;;;;;;5122231;28;20048;-61
2023/09/03 00:08:16;;;;;;;11.35;8.15;;;13.90;99.90;;;;;;5123423;28;20035;-59
2023/09/03 00:10:41;;;;;;;13.45;8.27;;;13.90;99.90;;;;;;5123094;28;20058;-60
2023/09/03 00:13:07;;;;;;;10.50;8.35;;;13.90;99.90;;;;;;5122428;28;20039;-60
2023/09/03 00:15:33;;;;;;;9.55;7.38;;;13.90;99.90;;;;;;5123108;28;20096;-61
2023/09/03 00:17:59;;;;;;;11.95;7.43;;;13.80;99.90;;;;;;5122077;28;20070;-61
2023/09/03 00:20:25;;;;;;;9.57;7.45;;;13.70;99.90;;;;;;5123077;28;20047;-61
2023/09/03 00:22:50;;;;;;;8.50;5.78;;;13.80;99.90;;;;;;5122119;27;20046;-58
2023/09/03 00:25:16;;;;;;;13.13;6.13;;;13.70;99.90;;;;;;5123364;28;20043;-61
2023/09/03 00:27:42;;;;;;;9.07;6.00;;;13.60;99.90;;;;;;5122111;28;20059;-61
2023/09/03 00:30:10;;;;;;;9.63;7.05;;;13.50;99.90;;;;;;5122062;28;20051;-63
2023/09/03 00:32:36;;;;;;;9.55;6.57;;;13.50;99.90;;;;;;5122812;28;20047;-63
2023/09/03 00:35:02;;;;;;;10.18;7.22;;;13.60;99.90;;;;;;5121528;28;20039;-63
2023/09/03 00:37:27;;;;;;;10.63;6.75;;;13.60;99.90;;;;;;5122404;28;20054;-63
2023/09/03 00:39:53;;;;;;;9.15;6.22;;;13.60;99.90;;;;;;5121625;28;20582;-63
2023/09/03 00:42:18;;;;;;;9.45;7.22;;;13.50;99.90;;;;;;5122908;27;20113;-63
2023/09/03 00:44:44;;;;;;;11.02;7.60;;;13.30;99.90;;;;;;5122171;28;20082;-63
2023/09/03 00:47:10;;;;;;;11.05;7.57;;;13.40;99.90;;;;;;5122012;28;20047;-63
2023/09/03 00:49:41;;;;;;;11.90;6.45;;;13.40;99.90;;;;;;5122112;28;20047;-64
2023/09/03 00:52:07;;;;;;;8.88;6.10;;;13.30;99.90;;;;;;5121298;28;20040;-63
2023/09/03 00:54:33;;;;;;;10.18;6.25;;;13.10;99.90;;;;;;5120444;28;20097;-64
2023/09/03 00:56:59;;;;;;;9.10;5.88;;;13.40;99.90;;;;;;5100599;28;20044;-63
2023/09/03 00:59:29;;;;;;;8.60;6.25;;;13.40;99.90;;;;;;5102404;28;20067;-63
2023/09/03 01:01:55;;;;;;;11.35;6.30;;;13.40;99.90;;;;;;5101540;28;20055;-63
2023/09/03 01:04:21;;;;;;;9.13;5.95;;;13.50;99.90;;;;;;5100452;28;20048;-63
2023/09/03 01:06:49;;;;;;;9.85;6.40;;;13.50;99.90;;;;;;5102129;28;20056;-63
2023/09/03 01:09:17;;;;;;;8.55;5.93;;;13.50;99.90;;;;;;5100840;28;20055;-64
2023/09/03 01:12:15;;;;;;;10.48;6.47;;;13.50;99.90;;;;;;5102410;28;20079;-64
2023/09/03 01:15:09;;;;;;;8.35;6.15;;;13.50;99.90;;;;;;5101460;28;20487;-63
2023/09/03 01:17:45;;;;;;;8.73;6.30;;;13.60;99.90;;;;;;5100682;28;20036;-64
2023/09/03 01:20:24;;;;;;;8.73;6.10;;;13.70;99.90;;;;;;5101719;28;20157;-63
2023/09/03 01:23:12;;;;;;;7.90;5.50;;;13.60;99.90;;;;;;5100657;28;20043;-63
2023/09/03 01:25:44;;;;;;;7.80;5.85;;;13.70;99.90;;;;;;5101198;28;20052;-63
2023/09/03 01:28:23;;;;;;;10.68;6.25;;;13.70;99.90;;;;;;5101528;28;20056;-62
2023/09/03 01:30:51;;;;;;;8.70;5.93;;;13.70;99.90;;;;;;5100153;28;20066;-64
2023/09/03 01:33:17;;;;;;;7.93;5.70;;;13.60;99.90;;;;;;5101418;28;20078;-63
2023/09/03 01:35:44;;;;;;;8.73;5.88;;;13.60;99.90;;;;;;5100783;28;20040;-63
2023/09/03 01:38:10;;;;;;;8.52;5.72;;;13.60;99.90;;;;;;5101387;28;20051;-63
2023/09/03 01:40:39;;;;;;;8.23;5.75;;;13.60;99.90;;;;;;5100806;28;20040;-63
2023/09/03 01:43:04;;;;;;;8.27;5.70;;;13.60;99.90;;;;;;5099914;28;20074;-64
2023/09/03 01:45:41;;;;;;;9.52;6.25;;;13.50;99.90;;;;;;5101195;28;20044;-63
2023/09/03 01:48:24;;;;;;;9.05;6.05;;;13.50;99.90;;;;;;5099621;28;20040;-63
2023/09/03 01:51:12;;;;;;;10.35;7.00;;;13.60;99.90;;;;;;5100846;28;20047;-63
2023/09/03 01:53:51;;;;;;;10.77;7.30;;;13.60;99.90;;;;;;5100900;28;20249;-63
2023/09/03 01:56:20;;;;;;;9.07;7.18;;;13.60;99.90;;;;;;5116198;28;20048;-63
2023/09/03 01:58:48;;;;;;;9.75;7.43;;;13.60;99.90;;;;;;5121472;28;20101;-63
2023/09/03 02:01:15;;;;;;;10.85;7.63;;;13.60;99.90;;;;;;5120092;28;20047;-63
2023/09/03 02:03:45;;;;;;;9.60;7.22;;;13.60;99.90;;;;;;5121091;28;20081;-63
2023/09/03 02:06:11;;;;;;;10.85;8.32;;;13.50;99.90;;;;;;5120871;28;20046;-63
2023/09/03 02:08:37;;;;;;;14.68;9.38;;;13.60;99.90;;;;;;5120072;28;20047;-64
2023/09/03 02:11:02;;;;;;;11.73;8.80;;;13.50;99.90;;;;;;5120931;28;20068;-63
2023/09/03 02:13:28;;;;;;;12.52;9.15;;;13.50;99.90;;;;;;5119871;27;20069;-63
2023/09/03 02:15:54;;;;;;;11.95;8.82;;;13.50;99.90;;;;;;5121153;28;20097;-63
2023/09/03 02:18:19;;;;;;;15.25;9.63;;;13.50;99.90;;;;;;5119620;28;20035;-64
2023/09/03 02:20:45;;;;;;;13.73;9.90;;;13.50;99.90;;;;;;5121095;28;20044;-63
2023/09/03 02:23:11;;;;;;;13.32;9.93;;;13.50;99.90;;;;;;5120264;27;20058;-63
2023/09/03 02:25:36;;;;;;;13.57;9.85;;;13.50;99.90;;;;;;5120287;28;20059;-63
2023/09/03 02:28:02;;;;;;;13.57;9.50;;;13.50;99.90;;;;;;5120357;28;20047;-63
2023/09/03 02:30:28;;;;;;;12.75;9.60;;;13.40;99.90;;;;;;5119711;28;20388;-64
2023/09/03 02:32:53;;;;;;;13.20;10.13;;;13.50;99.90;;;;;;5120837;28;20054;-63
2023/09/03 02:35:19;;;;;;;12.18;9.02;;;13.20;99.90;;;;;;5119467;28;20047;-63
2023/09/03 02:37:45;;;;;;;12.75;9.27;;;13.20;99.90;;;;;;5120756;28;20044;-63
2023/09/03 02:40:11;;;;;;;14.82;9.90;;;13.10;99.90;;;;;;5119879;28;20051;-63
2023/09/03 02:42:37;;;;;;;13.02;9.60;;;13.00;99.90;;;;;;5120350;28;20047;-64
2023/09/03 02:45:04;;;;;;;12.02;9.85;;;13.00;99.90;;;;;;5120414;28;20051;-62
2023/09/03 02:47:29;;;;;;;13.27;10.15;;;13.00;99.90;;;;;;5119313;28;20039;-64
2023/09/03 02:49:55;;;;;;;12.27;9.20;;;13.00;99.90;;;;;;5120142;28;20096;-63
2023/09/03 02:52:21;;;;;;;14.50;9.88;;;12.90;99.90;;;;;;5119068;28;20055;-62
2023/09/03 02:54:46;;;;;;;12.75;9.45;;;13.10;99.90;;;;;;5115638;27;20119;-64
2023/09/03 02:57:12;;;;;;;13.27;9.73;;;13.10;99.90;;;;;;5099406;28;20047;-64
2023/09/03 02:59:38;;;;;;;17.52;10.82;;;13.00;99.90;;;;;;5099311;28;20603;-64
2023/09/03 03:02:03;;;;;;;14.20;9.73;;;13.10;99.90;;;;;;5099512;28;20079;-63
2023/09/03 03:04:29;;;;;;;18.85;8.73;;;13.10;99.90;;;;;;5098530;28;20043;-62
2023/09/03 03:06:55;;;;;;;14.30;9.43;;;12.90;99.90;;;;;;5099667;28;20055;-64
2023/09/03 03:09:20;;;;;;;14.98;9.48;;;12.90;99.90;;;;;;5098336;28;20079;-63
2023/09/03 03:11:46;;;;;;;24.13;9.70;;;13.00;99.90;;;;;;5098447;28;20040;-64
2023/09/03 03:14:13;;;;;;;16.13;10.27;;;12.80;99.90;;;;;;5096920;28;20433;-63
2023/09/03 03:16:39;;;;;;;40.38;11.23;;;12.70;99.90;;;;;;5099858;28;20084;-63
2023/09/03 03:19:05;;;;;;;19.00;11.05;;;12.70;99.90;;;;;;5098863;28;20047;-63
2023/09/03 03:21:30;;;;;;;13.73;10.95;;;12.70;99.90;;;;;;5098698;28;20040;-63
2023/09/03 03:23:56;;;;;;;12.85;10.30;;;12.80;99.90;;;;;;5099682;28;20028;-63
2023/09/03 03:26:22;;;;;;;16.20;10.85;;;12.60;99.90;;;;;;5096488;28;20064;-63
2023/09/03 03:28:49;;;;;;;15.60;12.20;;;12.80;99.90;;;;;;5099306;28;20040;-63
2023/09/03 03:31:16;;;;;;;15.57;10.82;;;12.80;99.90;;;;;;5098204;28;20052;-63
2023/09/03 03:33:43;;;;;;;14.10;11.75;;;12.90;99.90;;;;;;5099929;28;20064;-63
2023/09/03 03:36:13;;;;;;;15.32;11.63;;;12.90;99.90;;;;;;5097810;28;20156;-63
2023/09/03 03:38:38;;;;;;;13.23;10.73;;;13.00;99.90;;;;;;5098786;28;20106;-63
2023/09/03 03:41:07;;;;;;;13.75;11.05;;;13.00;99.90;;;;;;5099391;28;20043;-62
2023/09/03 03:43:34;;;;;;;15.23;10.82;;;13.00;99.90;;;;;;5096871;28;20048;-62
2023/09/03 03:46:00;;;;;;;13.38;11.38;;;13.00;99.90;;;;;;5099443;28;20123;-62
2023/09/03 03:48:25;;;;;;;14.48;10.98;;;13.10;99.90;;;;;;5097890;28;20105;-61
2023/09/03 03:50:55;;;;;;;13.13;10.77;;;13.10;99.90;;;;;;5099175;28;20040;-62
2023/09/03 03:53:20;;;;;;;12.75;9.60;;;13.20;99.90;;;;;;5098909;28;20112;-62
2023/09/03 03:55:46;;;;;;;12.48;9.55;;;13.00;99.90;;;;;;5110646;28;20039;-62
2023/09/03 03:58:12;;;;;;;11.15;9.13;;;13.00;99.90;;;;;;5118721;28;20048;-62
2023/09/03 04:00:37;;;;;;;10.20;8.25;;;12.80;99.90;;;;;;5118149;28;20402;-62
2023/09/03 04:03:03;;;;;;;11.05;8.35;;;12.80;99.90;;;;;;5119636;28;20039;-62
2023/09/03 04:05:29;;;;;;;9.75;7.38;;;12.70;99.90;;;;;;5118285;28;20035;-62
2023/09/03 04:07:55;;;;;;;10.30;8.70;;;12.70;99.90;;;;;;5119660;28;20040;-62
2023/09/03 04:10:20;;;;;;;10.20;7.60;;;12.70;99.90;;;;;;5118898;28;20050;-62
2023/09/03 04:12:46;;;;;;;10.32;7.85;;;12.70;99.90;;;;;;5119081;28;20047;-62
2023/09/03 04:15:12;;;;;;;10.23;8.48;;;12.70;99.90;;;;;;5098349;28;20040;-62
2023/09/03 04:17:37;;;;;;;9.40;7.32;;;12.60;99.90;;;;;;5096945;28;20048;-62
2023/09/03 04:20:03;;;;;;;8.98;7.18;;;12.70;99.90;;;;;;5098881;28;20044;-62
2023/09/03 04:22:29;;;;;;;10.07;7.50;;;12.80;99.90;;;;;;5097950;28;20044;-62
2023/09/03 04:24:55;;;;;;;9.70;7.53;;;12.80;99.90;;;;;;5099384;28;20036;-62
2023/09/03 04:27:20;;;;;;;9.82;7.18;;;12.80;99.90;;;;;;5098092;28;20059;-61
2023/09/03 04:29:47;;;;;;;9.05;7.13;;;12.80;99.90;;;;;;5098374;28;20055;-62
2023/09/03 04:32:12;;;;;;;10.00;6.95;;;12.90;99.90;;;;;;5098779;28;20044;-61
2023/09/03 04:34:38;;;;;;;9.70;7.05;;;13.00;99.90;;;;;;5097561;28;20123;-61
2023/09/03 04:37:04;;;;;;;9.93;7.30;;;12.90;99.90;;;;;;5098730;28;20066;-61
2023/09/03 04:39:29;;;;;;;10.70;7.53;;;12.90;99.90;;;;;;5100157;28;20487;-62
2023/09/03 04:41:56;;;;;;;9.82;7.80;;;13.00;99.90;;;;;;5102542;28;20040;-61
2023/09/03 04:44:22;;;;;;;9.55;7.55;;;13.00;99.90;;;;;;5101354;28;20464;-62
2023/09/03 04:46:48;;;;;;;11.70;8.05;;;13.00;99.90;;;;;;5102084;28;20099;-62
2023/09/03 04:49:13;;;;;;;11.18;8.27;;;13.00;99.90;;;;;;5101470;28;20135;-62
2023/09/03 04:51:41;;;;;;;9.65;7.68;;;12.90;99.90;;;;;;5101262;28;20051;-61
2023/09/03 04:54:07;;;;;;;11.07;8.45;;;13.00;99.90;;;;;;5102377;28;20044;-61
2023/09/03 04:56:33;;;;;;;10.77;8.75;;;12.90;99.90;;;;;;5120019;28;20051;-62
2023/09/03 04:58:58;;;;;;;12.43;9.43;;;12.90;99.90;;;;;;5122438;28;20083;-62
2023/09/03 05:01:24;;;;;;;11.27;8.90;;;12.90;99.90;;;;;;5121291;28;20042;-62
2023/09/03 05:03:50;;;;;;;10.85;8.50;;;13.00;99.90;;;;;;5122832;28;20124;-62
2023/09/03 05:06:16;;;;;;;12.50;8.70;;;13.00;99.90;;;;;;5122113;28;20051;-61
2023/09/03 05:08:44;;;;;;;11.30;8.30;;;13.00;99.90;;;;;;5121640;28;20071;-62
2023/09/03 05:11:13;;;;;;;10.90;8.52;;;13.00;99.90;;;;;;5122485;28;20471;-61
2023/09/03 05:13:39;;;;;;;10.93;8.65;;;13.00;99.90;;;;;;5121135;28;20507;-61
2023/09/03 05:16:05;;;;;;;12.68;8.73;;;13.00;99.90;;;;;;5122352;28;20040;-62
2023/09/03 05:18:33;;;;;;;12.13;8.07;;;13.10;99.90;;;;;;5119666;28;20040;-60
2023/09/03 05:20:58;;;;;;;10.77;8.48;;;13.10;99.90;;;;;;5122314;28;20048;-61
2023/09/03 05:23:24;;;;;;;12.15;9.25;;;13.10;99.90;;;;;;5122047;28;20050;-62
2023/09/03 05:25:50;;;;;;;11.55;8.32;;;13.10;99.90;;;;;;5120973;28;20075;-62
2023/09/03 05:28:15;;;;;;;13.23;8.68;;;13.20;99.90;;;;;;5122145;28;20490;-62
2023/09/03 05:30:41;;;;;;;12.32;9.15;;;13.20;99.90;;;;;;5120771;28;20050;-61
2023/09/03 05:33:07;;;;;;;12.00;8.55;;;13.20;99.90;;;;;;5120575;28;20460;-62
2023/09/03 05:35:32;;;;;;;10.18;8.15;;;13.20;99.90;;;;;;5120977;28;20051;-62
2023/09/03 05:37:58;;;;;;;12.65;8.75;;;13.20;99.90;;;;;;5122211;27;20080;-62
2023/09/03 05:40:24;;;;;;;10.85;8.30;;;13.30;99.90;;;;;;5121164;28;20112;-62
2023/09/03 05:42:49;;;;;;;10.93;8.40;;;13.40;99.90;;;;;;5120543;28;20122;-62
2023/09/03 05:45:15;;;;;;;13.15;9.05;;;13.40;99.90;;;;;;5121517;28;20047;-62
2023/09/03 05:47:41;;;;;;;12.60;8.77;;;13.50;99.90;;;;;;5119872;28;20043;-62
2023/09/03 05:50:07;;;;;;;15.23;9.50;;;13.60;99.90;;;;;;5120984;28;20039;-63
2023/09/03 05:52:32;;;;;;;12.10;9.50;;;13.60;99.90;;;;;;5120294;28;20073;-62
2023/09/03 05:54:58;;;;;;;13.23;9.70;;;13.70;99.90;;;;;;5115643;28;20099;-62
2023/09/03 05:57:24;;;;;;;13.20;9.45;;;13.80;99.90;;;;;;5100095;28;20534;-62
2023/09/03 05:59:50;;;;;;;14.15;10.02;;;13.80;99.90;;;;;;5100469;28;20076;-61
2023/09/03 06:02:19;;;;;;;14.38;9.82;;;13.90;99.90;;;;;;5100366;28;20044;-63
2023/09/03 06:04:45;;;;;;;14.50;9.65;;;14.00;99.90;;;;;;5099674;28;20115;-64
2023/09/03 06:07:14;;;;;;;13.98;9.90;;;13.90;99.90;;;;;;5100945;28;20044;-62
2023/09/03 06:09:40;;;;;;;13.93;9.63;;;13.90;99.90;;;;;;5099746;28;20044;-63
2023/09/03 06:12:05;;;;;;;14.60;10.52;;;14.00;99.90;;;;;;5100582;28;20036;-62
2023/09/03 06:14:31;;;;;;;13.93;10.27;;;14.00;99.90;;;;;;5099605;28;20069;-62
2023/09/03 06:16:57;;;;;;;17.10;10.48;;;14.00;99.90;;;;;;5096080;28;20048;-61
2023/09/03 06:19:23;;;;;;;15.75;11.13;;;14.10;99.90;;;;;;5096240;28;20064;-62
2023/09/03 06:21:49;;;;;;;13.82;10.48;;;14.10;99.90;;;;;;5095214;28;20121;-62
2023/09/03 06:24:15;;;;;;;15.57;11.20;;;14.20;99.90;;;;;;5096349;28;20069;-58
2023/09/03 06:26:45;;;;;;;15.98;10.88;;;14.20;99.90;;;;;;5095284;28;20044;-62
2023/09/03 06:29:11;;;;;;;12.40;9.60;;;14.20;99.90;;;;;;5093740;28;20056;-62
2023/09/03 06:31:37;;;;;;;16.02;10.70;;;14.20;99.90;;;;;;5097159;28;20051;-61
2023/09/03 06:34:03;;;;;;;14.20;10.38;;;14.30;99.90;;;;;;5101434;28;20044;-61
2023/09/03 06:36:29;;;;;;;13.00;9.77;;;14.30;99.90;;;;;;5096381;28;20036;-61
2023/09/03 06:38:54;;;;;;;12.10;9.38;;;14.30;99.90;;;;;;5095390;28;20081;-61
2023/09/03 06:41:20;;;;;;;11.48;9.43;;;14.30;99.90;;;;;;5095647;28;20047;-60
2023/09/03 06:43:46;;;;;;;13.23;8.65;;;14.40;99.90;;;;;;5094752;28;20069;-61
2023/09/03 06:46:12;;;;;;;13.05;9.32;;;14.40;99.90;;;;;;5096341;28;20051;-61
2023/09/03 06:48:38;;;;;;;11.23;8.50;;;14.30;99.90;;;;;;5094673;28;20075;-62
2023/09/03 06:51:04;;;;;;;12.93;9.52;;;14.40;99.90;;;;;;5095996;28;20040;-62
2023/09/03 06:53:30;;;;;;;12.65;9.20;;;14.50;99.90;;;;;;5095304;28;20051;-62
2023/09/03 06:55:57;;;;;;;12.98;8.98;;;14.50;99.90;;;;;;5108456;28;20048;-62
2023/09/03 06:58:22;;;;;;;14.60;9.98;;;14.70;99.90;;;;;;5115661;28;20053;-61
2023/09/03 07:00:48;;;;;;;13.85;10.07;;;14.80;99.90;;;;;;5114542;27;20039;-61
2023/09/03 07:03:14;;;;;;;15.18;10.30;;;14.90;99.90;;;;;;5116350;28;20073;-61
2023/09/03 07:05:41;;;;;;;15.77;10.27;;;15.00;99.90;;;;;;5114613;28;20083;-62
2023/09/03 07:08:06;;;;;;;15.40;10.55;;;15.20;99.90;;;;;;5115601;28;20043;-62
2023/09/03 07:10:33;;;;;;;14.80;10.27;;;15.20;99.90;;;;;;5115888;28;20051;-61
2023/09/03 07:12:59;;;;;;;13.02;10.45;;;15.30;99.90;;;;;;5115031;28;20091;-62
2023/09/03 07:15:25;;;;;;;14.38;9.50;;;15.40;99.90;;;;;;5116351;28;20056;-62
2023/09/03 07:17:51;;;;;;;14.32;10.18;;;15.50;99.90;;;;;;5114187;28;20054;-61
2023/09/03 07:20:17;;;;;;;13.43;9.73;;;15.60;99.90;;;;;;5114318;28;20047;-61
2023/09/03 07:22:43;;;;;;;12.35;9.43;;;15.70;99.90;;;;;;5103645;28;20043;-61
2023/09/03 07:25:09;;;;;;;11.77;9.60;;;15.90;99.90;;;;;;5115846;28;20090;-61
2023/09/03 07:27:38;;;;;;;12.10;9.45;;;15.90;99.90;;;;;;5113184;28;20414;-60
2023/09/03 07:30:08;;;;;;;11.38;8.13;;;16.00;99.90;;;;;;5114770;28;20082;-61
2023/09/03 07:32:36;;;;;;;11.90;8.57;;;16.00;99.90;;;;;;5116025;28;20054;-61
2023/09/03 07:35:06;;;;;;;11.40;7.35;;;16.00;99.90;;;;;;5114682;28;20235;-61
2023/09/03 07:37:33;;;;;;;10.73;7.15;;;16.10;99.90;;;;;;5115905;28;20059;-62
2023/09/03 07:39:58;;;;;;;12.88;7.72;;;16.20;99.90;;;;;;5114563;28;20059;-61
2023/09/03 07:42:24;;;;;;;11.18;8.15;;;16.40;99.90;;;;;;5115778;28;20051;-62
2023/09/03 07:44:50;;;;;;;12.15;7.78;;;16.50;99.90;;;;;;5114133;28;20058;-61
2023/09/03 07:47:15;;;;;;;10.88;7.95;;;16.50;99.90;;;;;;5114671;28;20040;-62
2023/09/03 07:49:42;;;;;;;12.32;8.35;;;16.60;99.90;;;;;;5114910;28;20107;-60
2023/09/03 07:52:08;;;;;;;11.18;7.18;;;16.70;99.90;;;;;;5113852;28;20044;-61
2023/09/03 07:54:34;;;;;;;11.70;8.10;;;16.70;99.90;;;;;;5112736;28;20050;-62
2023/09/03 07:57:00;;;;;;;10.70;7.10;;;16.60;99.90;;;;;;5094039;28;20055;-62
2023/09/03 07:59:26;;;;;;;11.10;7.22;;;16.70;99.90;;;;;;5094594;28;20044;-62
2023/09/03 08:01:51;;;;;;;10.07;7.40;;;16.70;99.90;;;;;;5093404;28;20040;-60
2023/09/03 08:04:18;;;;;;;10.35;7.70;;;16.80;99.90;;;;;;5093613;28;20040;-61
2023/09/03 08:06:43;;;;;;;9.48;7.07;;;16.80;99.90;;;;;;5095399;28;20218;-61
2023/09/03 08:09:09;;;;;;;9.30;6.50;;;16.90;99.90;;;;;;5092927;28;20128;-61
2023/09/03 08:11:36;;;;;;;10.32;7.07;;;17.00;99.90;;;;;;5094895;28;20044;-61
2023/09/03 08:14:02;;;;;;;12.15;6.65;;;17.00;99.90;;;;;;5097516;28;20538;-60
2023/09/03 08:16:28;;;;;;;10.25;5.90;;;17.20;99.90;;;;;;5098684;28;20036;-62
2023/09/03 08:18:54;;;;;;;10.55;5.57;;;17.10;99.90;;;;;;5098318;28;20052;-61
2023/09/03 08:21:19;;;;;;;10.10;5.90;;;17.30;99.90;;;;;;5098260;28;20052;-62
2023/09/03 08:23:45;;;;;;;9.40;6.32;;;17.40;99.90;;;;;;5098649;28;20078;-61
2023/09/03 08:26:12;;;;;;;8.52;5.00;;;17.30;99.90;;;;;;5097394;28;20055;-61
2023/09/03 08:28:37;;;;;;;10.10;5.20;;;17.40;99.90;;;;;;5097915;28;20055;-61
2023/09/03 08:31:03;;;;;;;10.23;5.20;;;17.30;99.90;;;;;;5097539;28;20151;-61
2023/09/03 08:33:29;;;;;;;8.68;3.85;;;17.40;99.90;;;;;;5104375;28;20036;-62
2023/09/03 08:35:54;;;;;;;7.32;3.53;;;17.40;96.60;;;;;;5118269;28;20103;-62
2023/09/03 08:38:20;;;;;;;5.43;2.78;;;17.40;99.90;;;;;;5118516;27;20040;-62
2023/09/03 08:40:46;;;;;;;8.90;3.88;;;17.50;99.90;;;;;;5118585;28;20081;-61
2023/09/03 08:43:15;;;;;;;7.90;3.92;;;17.50;97.90;;;;;;5116641;28;20067;-61
2023/09/03 08:45:56;;;;;;;8.07;3.75;;;17.60;98.20;;;;;;5118703;28;20051;-62
2023/09/03 08:48:22;;;;;;;7.55;3.90;;;17.70;95.20;;;;;;5117365;27;20055;-61
2023/09/03 08:50:48;;;;;;;8.00;3.80;;;17.80;97.80;;;;;;5118636;28;20210;-60
2023/09/03 08:53:15;;;;;;;7.07;3.55;;;17.80;91.20;;;;;;5118304;28;20085;-62
2023/09/03 08:55:42;;;;;;;7.45;3.67;;;18.00;94.50;;;;;;5105836;28;20048;-61
2023/09/03 08:58:07;;;;;;;5.97;3.25;;;17.90;88.90;;;;;;5098058;28;20052;-61
2023/09/03 09:00:33;;;;;;;9.63;4.78;;;18.00;93.70;;;;;;5096932;28;20073;-61
2023/09/03 09:03:05;;;;;;;9.52;4.63;;;18.10;92.40;;;;;;5098401;28;20079;-61
2023/09/03 09:05:33;;;;;;;10.80;4.53;;;18.20;95.20;;;;;;5096528;28;20091;-61
2023/09/03 09:08:01;;;;;;;8.15;4.53;;;18.20;92.90;;;;;;5097973;28;20062;-62
2023/09/03 09:10:32;;;;;;;7.68;4.28;;;18.20;93.90;;;;;;5097433;28;20052;-61
2023/09/03 09:13:05;;;;;;;8.73;4.20;;;18.10;92.50;;;;;;5097025;28;20059;-61
2023/09/03 09:15:31;;;;;;;7.57;3.83;;;18.10;91.40;;;;;;5097728;28;20093;-61
2023/09/03 09:17:57;;;;;;;7.72;3.70;;;18.10;88.60;;;;;;5096044;28;20078;-60
2023/09/03 09:20:23;;;;;;;9.05;3.78;;;18.10;83.90;;;;;;5097959;28;20051;-60
2023/09/03 09:22:49;;;;;;;7.22;3.22;;;18.10;75.60;;;;;;5097018;28;20040;-57
2023/09/03 09:25:23;;;;;;;7.60;3.78;;;18.20;74.60;;;;;;5106701;28;20044;-62
2023/09/03 09:27:51;;;;;;;8.05;3.72;;;18.30;81.00;;;;;;5103802;28;20555;-60
2023/09/03 09:30:19;;;;;;;7.88;4.15;;;18.30;74.50;;;;;;5105820;28;20078;-62
2023/09/03 09:32:45;;;;;;;7.55;3.53;;;18.30;74.50;;;;;;5107269;28;20040;-61
2023/09/03 09:35:22;;;;;;;7.28;4.22;;;18.40;77.30;;;;;;5084451;28;20048;-61
2023/09/03 09:37:48;;;;;;;8.45;3.35;;;18.50;73.10;;;;;;5077708;28;20110;-62
2023/09/03 09:40:28;;;;;;;8.27;3.70;;;18.60;72.10;;;;;;5076492;28;20049;-62
2023/09/03 09:42:59;;;;;;;8.30;3.38;;;18.70;62.50;;;;;;5076194;28;20124;-63
2023/09/03 09:45:25;;;;;;;10.57;3.80;;;18.80;58.40;;;;;;5098674;28;20032;-62
2023/09/03 09:48:08;;;;;;;6.43;3.65;;;18.90;60.60;;;;;;5104488;28;20028;-62
2023/09/03 09:50:35;;;;;;;7.15;3.60;;;18.90;57.90;;;;;;5101746;28;20044;-61
2023/09/03 09:53:02;;;;;;;7.22;3.60;;;19.00;64.20;;;;;;5104957;28;20067;-62
2023/09/03 09:55:29;;;;;;;6.22;3.28;;;19.00;63.70;;;;;;5109091;28;20063;-61
2023/09/03 09:57:55;;;;;;;6.57;2.90;;;19.10;64.40;;;;;;5117310;28;20039;-62
2023/09/03 10:00:38;;;;;;;9.38;3.08;;;19.10;53.50;;;;;;5116002;28;20043;-61
2023/09/03 10:03:15;;;;;;;7.13;2.72;;;19.20;51.30;;;;;;5117683;28;20044;-62
2023/09/03 10:05:50;;;;;;;7.78;2.83;;;19.20;41.60;;;;;;5098723;28;20091;-57
2023/09/03 10:08:16;;;;;;;5.72;2.40;;;19.10;38.00;;;;;;5096421;28;20050;-61
2023/09/03 10:10:46;;;;;;;5.95;2.70;;;19.20;46.20;;;;;;5096625;28;20052;-61
2023/09/03 10:13:11;;;;;;;7.75;3.00;;;19.30;39.90;;;;;;5094953;28;20040;-61
2023/09/03 10:15:40;;;;;;;6.32;2.63;;;19.20;28.50;;;;;;5101793;28;20575;-61
2023/09/03 10:18:08;;;;;;;5.18;2.80;;;19.10;22.80;;;;;;5095248;28;20040;-61
2023/09/03 10:20:35;;;;;;;6.70;2.80;;;19.30;30.00;;;;;;5096668;28;20479;-61
2023/09/03 10:23:03;;;;;;;7.72;2.92;;;19.50;28.30;;;;;;5096115;28;20044;-61
2023/09/03 10:25:33;;;;;;;6.28;2.63;;;19.50;32.60;;;;;;5096072;28;20075;-61
2023/09/03 10:28:04;;;;;;;4.88;2.72;;;19.70;33.30;;;;;;5096138;28;20056;-61
2023/09/03 10:30:37;;;;;;;6.75;3.15;;;19.30;9.90;;;;;;5094833;28;20043;-61
2023/09/03 10:33:03;;;;;;;6.80;3.30;;;19.20;23.20;;;;;;5096255;28;20040;-61
2023/09/03 10:35:29;;;;;;;7.40;2.90;;;19.40;28.80;;;;;;5102097;28;20035;-61
2023/09/03 10:37:55;;;;;;;6.80;2.60;;;19.60;24.40;;;;;;5106652;28;20067;-61
2023/09/03 10:40:22;;;;;;;6.38;3.00;;;19.70;22.80;;;;;;5106422;28;21146;-62
2023/09/03 10:42:52;;;;;;;7.38;2.88;;;19.60;24.90;;;;;;5101594;28;20077;-62
2023/09/03 10:45:18;;;;;;;6.40;2.25;;;19.40;21.80;;;;;;5102593;28;20489;-61
2023/09/03 10:47:56;;;;;;;5.60;2.05;;;19.20;13.80;;;;;;5094882;28;20083;-62
2023/09/03 10:50:40;;;;;;;5.60;2.03;;;19.20;9.10;;;;;;5093915;28;20078;-62
2023/09/03 10:53:07;;;;;;;5.45;1.77;;;19.40;1.00;;;;;;5098010;28;20044;-61
2023/09/03 10:55:32;;;;;;;6.00;2.28;;;19.60;10.70;;;;;;5083160;28;20538;-61
2023/09/03 10:58:10;;;;;;;6.10;3.05;;;19.70;11.00;;;;;;5095769;28;20044;-62
2023/09/03 11:00:36;;;;;;;6.30;2.80;;;19.80;13.40;;;;;;5095659;28;20099;-62
2023/09/03 11:03:16;;;;;;;7.22;3.42;;;19.90;15.80;;;;;;5095910;28;20040;-61
2023/09/03 11:06:02;;;;;;;7.82;2.80;;;20.20;16.40;;;;;;5094879;28;20047;-62
2023/09/03 11:08:31;;;;;;;6.63;2.60;;;19.80;6.80;;;;;;5092860;28;20099;-62
2023/09/03 11:10:58;;;;;;;7.85;2.60;;;19.90;12.00;;;;;;5095712;28;20152;-61
2023/09/03 11:13:24;;;;;;;6.40;2.40;;;20.10;11.70;;;;;;5094064;28;20137;-61
2023/09/03 11:15:57;;;;;;;7.35;2.58;;;20.30;19.70;;;;;;5094393;28;20472;-61
2023/09/03 11:18:27;;;;;;;6.95;2.63;;;20.40;13.10;;;;;;5093735;28;20071;-61
2023/09/03 11:20:56;;;;;;;5.68;2.50;;;20.50;14.80;;;;;;5102958;28;20100;-62
2023/09/03 11:23:22;;;;;;;6.90;2.60;;;20.60;14.90;;;;;;5107698;28;20055;-61
2023/09/03 11:25:47;;;;;;;5.30;2.10;;;20.80;12.60;;;;;;5101842;28;20114;-61
2023/09/03 11:28:14;;;;;;;6.70;1.80;;;20.70;1.00;;;;;;5093855;28;20177;-62
2023/09/03 11:30:44;;;;;;;7.20;2.25;;;20.80;4.00;;;;;;5093481;28;20070;-60
2023/09/03 11:33:27;;;;;;;5.30;2.00;;;20.90;1.00;;;;;;5095316;28;20040;-61
2023/09/03 11:35:53;;;;;;;6.15;2.20;;;20.70;1.00;;;;;;5093872;28;20036;-62
2023/09/03 11:38:23;;;;;;;5.93;2.03;;;20.70;1.00;;;;;;5094850;28;20115;-62
2023/09/03 11:40:54;;;;;;;6.57;2.40;;;20.90;1.00;;;;;;5095042;28;20463;-61
2023/09/03 11:43:20;;;;;;;6.15;2.22;;;20.70;1.00;;;;;;5094113;28;20032;-60
2023/09/03 11:45:46;;;;;;;4.57;1.92;;;20.80;1.00;;;;;;5093967;28;20076;-62
2023/09/03 11:48:11;;;;;;;4.60;1.90;;;21.00;1.00;;;;;;5096604;28;20040;-62
2023/09/03 11:50:37;;;;;;;4.93;1.98;;;21.10;1.00;;;;;;5099366;28;20075;-62
2023/09/03 11:53:08;;;;;;;4.95;1.90;;;21.10;1.00;;;;;;5097873;28;20051;-61
2023/09/03 11:55:42;;;;;;;4.28;1.55;;;21.10;1.00;;;;;;5108988;28;20036;-61
2023/09/03 11:58:13;;;;;;;4.90;2.10;;;21.40;1.00;;;;;;5119469;28;20059;-63
2023/09/03 12:00:41;;;;;;;6.38;2.08;;;20.90;1.00;;;;;;5117115;28;20052;-62
2023/09/03 12:03:07;;;;;;;4.57;1.70;;;20.70;1.00;;;;;;5119396;28;20035;-62
2023/09/03 12:05:34;;;;;;;3.58;1.58;;;21.00;1.00;;;;;;5117710;28;20047;-63
2023/09/03 12:08:04;;;;;;;5.68;1.92;;;21.00;1.00;;;;;;5119163;28;20044;-63
2023/09/03 12:10:33;;;;;;;7.88;1.85;;;21.20;1.00;;;;;;5119130;28;20055;-62
2023/09/03 12:12:59;;;;;;;3.60;1.40;;;21.40;1.00;;;;;;5118057;28;20075;-62
2023/09/03 12:15:26;;;;;;;4.40;1.55;;;21.30;1.00;;;;;;5119397;28;20075;-62
2023/09/03 12:17:52;;;;;;;4.55;1.60;;;21.30;1.00;;;;;;5117538;28;20575;-62
2023/09/03 12:20:41;;;;;;;5.53;1.60;;;21.50;1.00;;;;;;5119029;28;20039;-62
2023/09/03 12:23:10;;;;;;;5.03;1.55;;;21.40;1.00;;;;;;5118981;28;20048;-62
2023/09/03 12:25:36;;;;;;;3.95;1.30;;;21.40;1.00;;;;;;5118345;28;20086;-62
2023/09/03 12:28:04;;;;;;;3.85;1.30;;;21.50;1.00;;;;;;5110115;28;20421;-62
2023/09/03 12:30:56;;;;;;;5.10;1.65;;;21.40;1.00;;;;;;5097627;28;20063;-62
2023/09/03 12:33:26;;;;;;;9.38;1.42;;;21.60;1.00;;;;;;5093547;28;20511;-62
2023/09/03 12:36:09;;;;;;;3.75;1.40;;;21.80;1.00;;;;;;5098023;28;20070;-62
2023/09/03 12:38:57;;;;;;;3.88;1.38;;;22.00;1.00;;;;;;5097273;28;20119;-61
2023/09/03 12:41:34;;;;;;;4.43;1.52;;;22.20;1.00;;;;;;5096970;28;20047;-62
2023/09/03 12:44:07;;;;;;;4.65;1.48;;;22.30;1.00;;;;;;5097388;28;20028;-62